createdAt,value
2018-08-09T13:01:42.114Z,32.21
2018-08-09T13:04:42.232Z,33.29
2018-08-09T13:07:13.519Z,31.54
2018-08-09T13:07:40.048Z,31.73
2018-08-09T13:10:39.441Z,30.45
2018-08-09T13:22:41.711Z,32.13
2018-08-09T13:39:41.368Z,32.18
2018-08-09T13:40:45.698Z,31.79
2018-08-09T13:42:03.270Z,32.48
2018-08-09T13:45:13.088Z,31.79
2018-08-09T13:46:15.674Z,32.18
2018-08-09T13:47:10.073Z,31.90
2018-08-09T13:48:17.109Z,32.10
2018-08-09T13:49:25.159Z,31.98
2018-08-09T13:50:17.920Z,32.17
2018-08-09T13:51:16.009Z,32.56
2018-08-09T13:52:19.980Z,32.84
2018-08-09T13:53:13.158Z,33.94
2018-08-09T13:57:19.858Z,34.89
2018-08-09T13:58:18.638Z,34.78
2018-08-09T14:00:53.170Z,35.55
2018-08-09T14:01:51.962Z,35.85
2018-08-09T14:02:47.586Z,35.36
2018-08-09T14:03:49.075Z,35.85
2018-08-09T14:04:59.719Z,36.03
2018-08-09T14:08:11.304Z,35.74
2018-08-09T14:10:06.156Z,36.13
2018-08-09T14:11:00.498Z,35.93
2018-08-09T14:12:06.377Z,36.01
2018-08-09T14:12:58.617Z,36.13
2018-08-09T14:15:33.720Z,36.11
2018-08-09T14:16:26.860Z,36.51
2018-08-09T14:17:26.528Z,36.40
2018-08-09T14:20:05.966Z,36.60
2018-08-09T14:21:07.486Z,36.70
2018-08-09T14:22:00.392Z,36.03
2018-08-09T14:22:58.472Z,36.22
2018-08-09T14:24:19.955Z,36.91
2018-08-09T14:26:39.367Z,36.82
2018-08-09T14:27:37.204Z,37.01
2018-08-09T14:28:44.163Z,37.90
2018-08-09T14:29:35.445Z,37.40
2018-08-09T14:30:33.754Z,37.01
2018-08-09T14:31:33.274Z,37.62
2018-08-09T14:32:33.857Z,37.50
2018-08-09T14:33:35.817Z,37.50
2018-08-09T14:34:39.703Z,38.39
2018-08-09T14:35:40.689Z,38.78
2018-08-09T14:36:34.556Z,39.56
2018-08-09T14:37:53.831Z,40.84
2018-08-09T14:38:32.840Z,41.24
2018-08-09T14:39:53.537Z,40.74
2018-08-09T14:40:39.327Z,41.63
2018-08-09T14:42:01.170Z,41.92
2018-08-09T14:42:34.031Z,41.41
2018-08-09T14:43:56.191Z,42.79
2018-08-09T14:44:54.571Z,42.49
2018-08-09T14:45:40.371Z,42.79
2018-08-09T14:46:48.898Z,42.66
2018-08-09T14:47:36.182Z,42.76
2018-08-09T14:48:55.838Z,42.96
2018-08-09T14:49:42.420Z,42.66
2018-08-09T14:51:07.004Z,42.37
2018-08-09T14:53:09.828Z,43.88
2018-08-09T14:54:42.492Z,46.75
2018-08-09T14:55:07.127Z,47.48
2018-08-09T14:56:07.936Z,48.90
2018-08-09T14:57:08.063Z,50.43
2018-08-09T14:58:28.693Z,51.56
2018-08-09T14:59:12.794Z,53.55
2018-08-09T15:00:30.011Z,54.60
2018-08-09T15:01:08.960Z,56.22
2018-08-09T15:02:32.271Z,57.65
2018-08-09T15:03:34.477Z,58.69
2018-08-09T15:04:15.570Z,59.83
2018-08-09T15:05:11.505Z,60.41
2018-08-09T15:06:11.959Z,61.29
2018-08-09T15:07:10.997Z,61.65
2018-08-09T15:08:13.487Z,63.65
2018-08-09T15:20:06.277Z,77.92
2018-08-09T15:21:08.435Z,79.52
2018-08-09T15:22:11.628Z,82.72
2018-08-09T15:23:07.268Z,83.94
2018-08-09T15:24:26.170Z,84.22
